Time;durP1;ratioP1;P1;durP2;ratioP2;P2;SDS_P1;SDS_P2;PMS_P1;PMS_P2;Temp;Humidity;BMP_temperature;BMP_pressure;BME280_temperature;BME280_humidity;BME280_pressure;Samples;Min_cycle;Max_cycle;Signal;HPM_P1;HPM_P2
2023/02/07 00:00:41;;;;;;;78.90;22.90;;;1.40;99.90;;;;;;5033372;28;20231;-83
2023/02/07 00:03:07;;;;;;;75.70;18.87;;;1.30;99.90;;;;;;5032537;28;20224;-83
2023/02/07 00:05:32;;;;;;;83.43;29.73;;;1.30;99.90;;;;;;5031695;28;20471;-83
2023/02/07 00:07:58;;;;;;;81.37;25.73;;;1.30;99.90;;;;;;5032884;28;20169;-83
2023/02/07 00:10:24;;;;;;;79.13;20.70;;;1.30;99.90;;;;;;5032840;28;20174;-83
2023/02/07 00:12:49;;;;;;;81.50;16.63;;;1.30;99.90;;;;;;5031587;28;20641;-83
2023/02/07 00:15:15;;;;;;;76.67;13.70;;;1.30;99.90;;;;;;5032987;28;20177;-84
2023/02/07 00:17:41;;;;;;;77.40;13.63;;;1.30;99.90;;;;;;5032906;28;20176;-83
2023/02/07 00:20:08;;;;;;;79.03;13.57;;;1.20;99.90;;;;;;5033030;28;20417;-83
2023/02/07 00:22:33;;;;;;;77.57;12.25;;;1.20;99.90;;;;;;5032952;28;20193;-84
2023/02/07 00:24:59;;;;;;;75.30;13.60;;;1.20;99.90;;;;;;5032859;28;20228;-84
2023/02/07 00:27:25;;;;;;;79.37;12.87;;;1.20;99.90;;;;;;5033059;28;20173;-84
2023/02/07 00:29:51;;;;;;;80.20;12.43;;;1.20;99.90;;;;;;5031028;28;20428;-84
2023/02/07 00:32:16;;;;;;;76.77;12.73;;;1.20;99.90;;;;;;5031987;28;20190;-84
2023/02/07 00:34:44;;;;;;;79.37;13.07;;;1.20;99.90;;;;;;5032852;28;20246;-84
2023/02/07 00:37:10;;;;;;;77.47;12.80;;;1.30;99.90;;;;;;5015079;28;20423;-84
2023/02/07 00:39:37;;;;;;;75.43;14.03;;;1.30;99.90;;;;;;5032765;28;20185;-84
2023/02/07 00:42:03;;;;;;;75.53;17.50;;;1.20;99.90;;;;;;5031096;28;20222;-84
2023/02/07 00:44:28;;;;;;;75.77;17.20;;;1.20;99.90;;;;;;5032318;28;20193;-83
2023/02/07 00:46:54;;;;;;;79.20;18.97;;;1.20;99.90;;;;;;5032618;28;20428;-84
2023/02/07 00:49:20;;;;;;;78.00;23.13;;;1.30;99.90;;;;;;5032409;28;20193;-84
2023/02/07 00:51:45;;;;;;;80.10;26.00;;;1.30;99.90;;;;;;5015305;28;20189;-84
2023/02/07 00:54:11;;;;;;;79.50;27.00;;;1.30;99.90;;;;;;5032214;28;20193;-84
2023/02/07 00:56:37;;;;;;;86.00;29.73;;;1.20;99.90;;;;;;5032109;28;20232;-84
2023/02/07 00:59:03;;;;;;;81.00;25.90;;;1.20;99.90;;;;;;5031424;28;20409;-84
2023/02/07 01:01:28;;;;;;;86.73;28.43;;;1.10;99.90;;;;;;5032019;28;20261;-84
2023/02/07 01:03:54;;;;;;;84.13;28.17;;;1.10;99.90;;;;;;5015047;28;20529;-84
2023/02/07 01:06:20;;;;;;;80.20;24.27;;;1.00;99.90;;;;;;5031887;28;20277;-83
2023/02/07 01:08:47;;;;;;;79.35;20.40;;;1.10;99.90;;;;;;5032723;28;20504;-83
2023/02/07 01:11:15;;;;;;;86.50;24.17;;;1.00;99.90;;;;;;5032730;28;20182;-84
2023/02/07 01:13:42;;;;;;;78.07;19.63;;;1.00;99.90;;;;;;5032287;28;20165;-83
2023/02/07 01:16:33;;;;;;;81.60;19.70;;;0.90;99.90;;;;;;5032873;28;20173;-83
2023/02/07 01:19:04;;;;;;;77.13;16.88;;;0.90;99.90;;;;;;5134543;23;20198;-83
2023/02/07 01:21:29;;;;;;;79.13;16.17;;;0.90;99.90;;;;;;5002139;28;20191;-83
2023/02/07 01:23:56;;;;;;;76.30;17.27;;;0.90;99.90;;;;;;4993166;28;20176;-83
2023/02/07 01:26:26;;;;;;;93.43;21.40;;;0.90;99.90;;;;;;4993123;28;20433;-83
2023/02/07 01:28:53;;;;;;;85.57;20.85;;;0.90;99.90;;;;;;4993623;28;20226;-83
2023/02/07 01:31:21;;;;;;;79.55;20.90;;;0.90;99.90;;;;;;4994379;28;20183;-83
2023/02/07 01:33:47;;;;;;;76.65;22.80;;;0.80;99.90;;;;;;4991793;28;20171;-83
2023/02/07 01:36:15;;;;;;;77.00;22.77;;;0.80;99.90;;;;;;4992787;28;20194;-83
2023/02/07 01:38:41;;;;;;;75.60;20.52;;;0.80;99.90;;;;;;4992423;28;20159;-83
2023/02/07 01:41:08;;;;;;;78.32;19.05;;;0.80;99.90;;;;;;4993572;28;20207;-83
2023/02/07 01:43:35;;;;;;;76.95;16.17;;;0.80;99.90;;;;;;4992907;28;20163;-83
2023/02/07 01:46:00;;;;;;;78.28;18.20;;;0.80;99.90;;;;;;4992743;28;20194;-83
2023/02/07 01:48:34;;;;;;;78.17;21.80;;;0.80;99.90;;;;;;4992919;28;20223;-84
2023/02/07 01:51:04;;;;;;;79.25;19.10;;;0.80;99.90;;;;;;4992655;28;20179;-83
2023/02/07 01:53:33;;;;;;;76.13;22.23;;;0.70;99.90;;;;;;4992177;28;20159;-84
2023/02/07 01:56:05;;;;;;;79.70;27.42;;;0.70;99.90;;;;;;4992315;28;20159;-84
2023/02/07 01:58:38;;;;;;;81.85;27.85;;;0.70;99.90;;;;;;4991647;28;20171;-83
2023/02/07 02:01:10;;;;;;;81.32;23.50;;;0.70;99.90;;;;;;4992857;28;20195;-83
2023/02/07 02:03:41;;;;;;;74.60;18.13;;;0.60;99.90;;;;;;4992489;28;20155;-84
2023/02/07 02:06:08;;;;;;;83.53;22.27;;;0.50;99.90;;;;;;4991715;28;20183;-84
2023/02/07 02:08:34;;;;;;;81.70;27.33;;;0.40;99.90;;;;;;4992703;28;20167;-84
2023/02/07 02:11:18;;;;;;;81.90;22.40;;;0.40;99.90;;;;;;4995422;28;20193;-84
2023/02/07 02:14:00;;;;;;;81.85;21.85;;;0.40;99.90;;;;;;4994949;28;20171;-84
2023/02/07 02:16:37;;;;;;;75.30;24.25;;;0.30;99.90;;;;;;4995509;28;20152;-84
2023/02/07 02:19:47;;;;;;;80.88;23.15;;;0.30;99.90;;;;;;4995373;28;20261;-84
2023/02/07 02:22:22;;;;;;;82.28;19.30;;;0.20;99.90;;;;;;4987799;28;20199;-84
2023/02/07 02:25:34;;;;;;;78.65;21.65;;;0.20;99.90;;;;;;4995537;28;20182;-84
2023/02/07 02:28:30;;;;;;;77.68;19.55;;;0.30;99.90;;;;;;4995413;28;20170;-85
2023/02/07 02:31:13;;;;;;;81.53;19.90;;;0.30;99.90;;;;;;4995299;28;20187;-84
2023/02/07 02:33:59;;;;;;;77.15;18.60;;;0.20;99.90;;;;;;4995945;28;20220;-84
2023/02/07 02:36:51;;;;;;;75.95;15.25;;;0.10;99.90;;;;;;4994826;28;20187;-84
2023/02/07 02:39:28;;;;;;;75.03;14.02;;;0.10;99.90;;;;;;4995591;28;20151;-84
2023/02/07 02:42:17;;;;;;;76.60;13.48;;;0.10;99.90;;;;;;4995479;28;20189;-84
2023/02/07 02:45:03;;;;;;;76.32;13.73;;;0.00;99.90;;;;;;4995186;28;20187;-84
2023/02/07 02:47:31;;;;;;;77.18;13.80;;;0.00;99.90;;;;;;4995391;28;20155;-84
2023/02/07 02:49:57;;;;;;;74.40;13.63;;;0.00;99.90;;;;;;4994941;28;20159;-84
2023/02/07 02:52:25;;;;;;;79.20;13.38;;;0.00;99.90;;;;;;4995512;28;20187;-84
2023/02/07 02:54:51;;;;;;;74.45;14.20;;;0.00;99.90;;;;;;4994118;28;20202;-84
2023/02/07 02:57:41;;;;;;;74.77;14.53;;;0.00;99.90;;;;;;4994214;28;20194;-84
2023/02/07 03:00:25;;;;;;;75.18;14.27;;;0.00;99.90;;;;;;4996312;28;20163;-84
2023/02/07 03:03:15;;;;;;;75.63;13.75;;;-0.10;99.90;;;;;;4996205;28;20171;-83
2023/02/07 03:06:17;;;;;;;74.13;13.23;;;-0.10;99.90;;;;;;4994940;28;20207;-84
2023/02/07 03:08:52;;;;;;;75.28;12.73;;;-0.10;99.90;;;;;;4994085;28;20165;-84
2023/02/07 03:11:22;;;;;;;73.40;12.10;;;-0.20;99.90;;;;;;4993876;28;20808;-84
2023/02/07 03:13:50;;;;;;;75.85;13.45;;;-0.20;99.90;;;;;;4995132;28;20222;-84
2023/02/07 03:16:34;;;;;;;77.95;13.93;;;-0.20;99.90;;;;;;4994885;28;20303;-84
2023/02/07 03:19:17;;;;;;;77.72;14.63;;;-0.20;99.90;;;;;;4994560;28;20198;-83
2023/02/07 03:21:46;;;;;;;76.88;13.90;;;-0.20;99.90;;;;;;4992875;28;20186;-84
2023/02/07 03:24:27;;;;;;;73.82;12.25;;;-0.40;99.90;;;;;;4994503;28;20167;-84
2023/02/07 03:26:56;;;;;;;73.43;12.98;;;-0.30;99.90;;;;;;4993872;28;20147;-84
2023/02/07 03:29:24;;;;;;;79.90;14.90;;;-0.30;99.90;;;;;;4993486;28;20163;-84
2023/02/07 03:31:56;;;;;;;77.40;13.98;;;-0.30;99.90;;;;;;4993438;28;20190;-84
2023/02/07 03:34:28;;;;;;;78.40;13.60;;;-0.40;99.90;;;;;;4993606;28;20152;-84
2023/02/07 03:37:03;;;;;;;76.53;12.35;;;-0.40;99.90;;;;;;4992848;28;20518;-84
2023/02/07 03:39:29;;;;;;;77.40;12.13;;;-0.40;99.90;;;;;;5089944;23;20227;-83
2023/02/07 03:42:05;;;;;;;76.70;14.03;;;-0.40;99.90;;;;;;5040537;28;20563;-84
2023/02/07 03:44:34;;;;;;;72.00;13.02;;;-0.50;99.90;;;;;;5039897;28;20532;-84
2023/02/07 03:47:00;;;;;;;78.32;14.57;;;-0.60;99.90;;;;;;5040325;28;20227;-83
2023/02/07 03:49:26;;;;;;;76.27;14.53;;;-0.50;99.90;;;;;;5022134;28;20161;-84
2023/02/07 03:51:52;;;;;;;76.57;13.93;;;-0.50;99.90;;;;;;5039548;28;20814;-83
2023/02/07 03:54:18;;;;;;;82.38;13.15;;;-0.50;99.90;;;;;;5039564;28;20157;-84
2023/02/07 03:56:44;;;;;;;75.67;12.93;;;-0.60;99.90;;;;;;5039911;28;20173;-84
2023/02/07 03:59:10;;;;;;;77.53;13.55;;;-0.60;99.90;;;;;;5020787;28;20571;-84
2023/02/07 04:01:40;;;;;;;77.85;13.52;;;-0.60;99.90;;;;;;5039045;28;20556;-84
2023/02/07 04:04:07;;;;;;;76.50;12.45;;;-0.60;99.90;;;;;;5039165;28;20155;-84
2023/02/07 04:06:33;;;;;;;74.43;12.88;;;-0.70;99.90;;;;;;5038968;28;20170;-84
2023/02/07 04:08:58;;;;;;;74.73;13.13;;;-0.70;99.90;;;;;;5039683;28;20195;-84
2023/02/07 04:11:24;;;;;;;76.13;13.53;;;-0.70;99.90;;;;;;5039059;28;20424;-83
2023/02/07 04:13:50;;;;;;;78.87;14.00;;;-0.80;99.90;;;;;;5039384;28;20529;-84
2023/02/07 04:16:16;;;;;;;76.07;13.03;;;-0.80;99.90;;;;;;5038839;28;20248;-84
2023/02/07 04:18:41;;;;;;;77.10;12.70;;;-0.80;99.90;;;;;;5021246;28;20263;-84
2023/02/07 04:21:08;;;;;;;76.40;14.20;;;-0.80;99.90;;;;;;5039428;28;20556;-84
2023/02/07 04:23:34;;;;;;;75.93;13.75;;;-0.80;99.90;;;;;;5021320;28;20710;-84
2023/02/07 04:26:01;;;;;;;78.65;12.52;;;-0.80;99.90;;;;;;5039573;28;20189;-84
2023/02/07 04:28:27;;;;;;;71.25;12.00;;;-0.80;99.90;;;;;;5039761;28;20161;-84
2023/02/07 04:30:53;;;;;;;76.40;12.73;;;-0.80;99.90;;;;;;5039457;28;20177;-84
2023/02/07 04:33:21;;;;;;;79.17;13.87;;;-0.80;99.90;;;;;;5038773;28;20184;-84
2023/02/07 04:35:55;;;;;;;74.65;14.45;;;-0.90;99.90;;;;;;5038942;28;20165;-84
2023/02/07 04:38:24;;;;;;;76.75;13.75;;;-1.00;99.90;;;;;;5038665;28;20263;-84
2023/02/07 04:40:58;;;;;;;75.85;14.20;;;-0.90;99.90;;;;;;5039564;28;20263;-84
2023/02/07 04:43:24;;;;;;;79.78;13.18;;;-1.00;99.90;;;;;;5020988;28;20168;-84
2023/02/07 04:45:53;;;;;;;82.00;14.90;;;-1.00;99.90;;;;;;5038880;28;20189;-85
2023/02/07 04:48:18;;;;;;;73.18;11.60;;;-1.10;99.90;;;;;;5020273;28;20412;-84
2023/02/07 04:50:44;;;;;;;80.13;14.23;;;-1.10;99.90;;;;;;5020875;28;20267;-84
2023/02/07 04:53:13;;;;;;;84.40;13.47;;;-1.00;99.90;;;;;;5038433;28;20536;-84
2023/02/07 04:55:39;;;;;;;78.78;14.18;;;-1.00;99.90;;;;;;5020854;28;20181;-84
2023/02/07 04:58:06;;;;;;;78.83;14.60;;;-1.10;99.90;;;;;;5020626;28;20169;-84
2023/02/07 05:00:32;;;;;;;78.70;15.23;;;-1.10;99.90;;;;;;5038771;28;20415;-84
2023/02/07 05:02:58;;;;;;;76.43;14.73;;;-1.10;99.90;;;;;;5021155;28;20168;-84
2023/02/07 05:05:24;;;;;;;75.22;13.32;;;-1.20;99.90;;;;;;5020272;28;20196;-84
2023/02/07 05:07:50;;;;;;;79.43;14.17;;;-1.20;99.90;;;;;;5038730;28;20696;-84
2023/02/07 05:10:15;;;;;;;82.70;15.00;;;-1.10;99.90;;;;;;5020469;28;20161;-84
2023/02/07 05:12:41;;;;;;;72.73;12.50;;;-1.20;99.90;;;;;;5038717;28;20231;-84
2023/02/07 05:15:07;;;;;;;76.40;13.23;;;-1.20;99.90;;;;;;5021213;28;20169;-84
2023/02/07 05:17:33;;;;;;;78.55;14.43;;;-1.30;99.90;;;;;;5038390;28;20173;-84
2023/02/07 05:20:00;;;;;;;75.80;13.33;;;-1.30;99.90;;;;;;5038591;28;20219;-84
2023/02/07 05:22:26;;;;;;;75.60;12.85;;;-1.30;99.90;;;;;;5038771;28;20423;-84
2023/02/07 05:24:52;;;;;;;82.25;14.57;;;-1.30;99.90;;;;;;5020570;28;20189;-84
2023/02/07 05:27:17;;;;;;;79.77;14.40;;;-1.30;99.90;;;;;;5038913;28;20168;-84
2023/02/07 05:29:43;;;;;;;77.10;14.07;;;-1.30;99.90;;;;;;5020667;28;20169;-84
2023/02/07 05:34:58;;;;;;;78.40;14.70;;;-1.30;99.90;;;;;;5038345;28;20156;-83
2023/02/07 05:37:24;;;;;;;78.85;13.35;;;-1.40;99.90;;;;;;5020911;28;20169;-84
2023/02/07 05:39:49;;;;;;;77.77;14.63;;;-1.30;99.90;;;;;;5037965;28;20264;-84
2023/02/07 05:42:15;;;;;;;75.80;13.47;;;-1.40;99.90;;;;;;5037955;28;20431;-84
2023/02/07 05:44:41;;;;;;;74.88;13.23;;;-1.40;99.90;;;;;;5037750;28;20196;-84
2023/02/07 05:47:07;;;;;;;79.20;13.73;;;-1.50;99.90;;;;;;5020519;28;20161;-84
2023/02/07 05:49:33;;;;;;;75.67;14.27;;;-1.40;99.90;;;;;;5038446;28;20189;-84
2023/02/07 05:51:58;;;;;;;80.68;15.63;;;-1.50;99.90;;;;;;5020293;28;20212;-85
2023/02/07 05:54:24;;;;;;;78.03;15.10;;;-1.50;99.90;;;;;;5020300;28;20227;-84
2023/02/07 05:56:50;;;;;;;78.10;14.30;;;-1.50;99.90;;;;;;5020380;28;20173;-84
2023/02/07 05:59:16;;;;;;;72.33;12.20;;;-1.40;99.90;;;;;;5020794;28;20455;-84
2023/02/07 06:01:41;;;;;;;79.20;13.13;;;-1.50;99.90;;;;;;5020180;28;20569;-85
2023/02/07 06:04:07;;;;;;;80.33;16.73;;;-1.50;99.90;;;;;;5037388;28;20439;-84
2023/02/07 06:06:33;;;;;;;78.60;13.73;;;-1.50;99.90;;;;;;5038069;28;20192;-85
2023/02/07 06:08:58;;;;;;;78.20;14.53;;;-1.50;99.90;;;;;;5038267;28;20682;-84
2023/02/07 06:11:24;;;;;;;78.67;13.33;;;-1.40;99.90;;;;;;5037929;28;20185;-83
2023/02/07 06:13:50;;;;;;;76.17;13.83;;;-1.50;99.90;;;;;;5037883;28;20169;-84
2023/02/07 06:16:19;;;;;;;77.00;13.60;;;-1.50;99.90;;;;;;5019826;28;20386;-84
2023/02/07 06:18:44;;;;;;;79.10;14.02;;;-1.50;99.90;;;;;;5037632;28;20644;-84
2023/02/07 06:21:10;;;;;;;76.97;12.07;;;-1.50;99.90;;;;;;5020132;28;20195;-84
2023/02/07 06:23:36;;;;;;;76.97;13.63;;;-1.50;99.90;;;;;;5019470;28;20201;-84
2023/02/07 06:26:01;;;;;;;77.67;14.07;;;-1.50;99.90;;;;;;5037369;28;20552;-83
2023/02/07 06:28:27;;;;;;;75.77;13.40;;;-1.50;99.90;;;;;;5037122;28;20679;-83
2023/02/07 06:30:53;;;;;;;76.97;13.27;;;-1.60;99.90;;;;;;5037289;28;20272;-84
2023/02/07 06:33:18;;;;;;;74.67;12.70;;;-1.60;99.90;;;;;;5019774;28;20165;-83
2023/02/07 06:35:47;;;;;;;77.33;13.30;;;-1.60;99.90;;;;;;5037458;28;20191;-84
2023/02/07 06:38:14;;;;;;;74.22;13.57;;;-1.60;99.90;;;;;;5037844;28;20954;-83
2023/02/07 06:40:40;;;;;;;72.38;11.90;;;-1.70;99.90;;;;;;5021386;28;20201;-84
2023/02/07 06:43:06;;;;;;;73.38;13.52;;;-1.70;99.90;;;;;;5043560;28;20192;-85
2023/02/07 06:45:31;;;;;;;77.72;13.82;;;-1.70;99.90;;;;;;5026508;28;20185;-85
2023/02/07 06:47:57;;;;;;;76.03;12.90;;;-1.70;99.90;;;;;;5038303;28;20169;-84
2023/02/07 06:50:23;;;;;;;78.10;14.27;;;-1.70;99.90;;;;;;5037914;28;20165;-84
2023/02/07 06:52:49;;;;;;;74.27;14.20;;;-1.70;99.90;;;;;;5038879;28;20168;-84
2023/02/07 06:55:15;;;;;;;76.18;13.77;;;-1.70;99.90;;;;;;5022719;28;20265;-85
2023/02/07 06:57:41;;;;;;;81.70;14.00;;;-1.70;99.90;;;;;;5042716;28;20167;-84
2023/02/07 07:00:07;;;;;;;74.80;14.70;;;-1.80;99.90;;;;;;5042167;28;20165;-83
2023/02/07 07:02:33;;;;;;;75.55;13.20;;;-1.80;99.90;;;;;;5042125;28;20228;-84
2023/02/07 07:04:58;;;;;;;74.17;13.50;;;-1.80;99.90;;;;;;5042083;28;20239;-83
2023/02/07 07:07:24;;;;;;;76.53;12.07;;;-1.80;99.90;;;;;;5024769;28;20176;-83
2023/02/07 07:09:50;;;;;;;75.50;13.10;;;-1.70;99.90;;;;;;5023532;28;20169;-82
2023/02/07 07:12:15;;;;;;;75.20;13.80;;;-1.70;99.90;;;;;;5040357;28;20181;-83
2023/02/07 07:14:41;;;;;;;73.10;13.70;;;-1.70;99.90;;;;;;5023644;28;20173;-84
2023/02/07 07:17:06;;;;;;;72.87;11.57;;;-1.80;99.90;;;;;;5041770;28;20520;-83
2023/02/07 07:19:32;;;;;;;71.47;11.70;;;-1.70;99.90;;;;;;5023959;28;20200;-83
2023/02/07 07:21:58;;;;;;;72.27;10.70;;;-1.70;99.90;;;;;;5023685;28;20193;-83
2023/02/07 07:24:27;;;;;;;73.23;12.03;;;-1.60;99.90;;;;;;5041474;28;20173;-83
2023/02/07 07:26:52;;;;;;;80.13;10.60;;;-1.50;99.90;;;;;;5022833;28;20205;-83
2023/02/07 07:29:18;;;;;;;70.37;10.60;;;-1.30;99.90;;;;;;5022618;28;20169;-83
2023/02/07 07:31:45;;;;;;;70.60;11.45;;;-1.30;99.90;;;;;;5023743;28;20196;-83
2023/02/07 07:34:11;;;;;;;75.25;11.73;;;-1.40;99.90;;;;;;5022944;28;20169;-84
2023/02/07 07:36:37;;;;;;;79.97;12.25;;;-1.40;99.90;;;;;;5022468;28;20165;-83
2023/02/07 07:39:03;;;;;;;71.90;10.60;;;-1.30;99.90;;;;;;5022436;28;20211;-83
2023/02/07 07:41:29;;;;;;;71.20;10.15;;;-1.30;99.90;;;;;;5040481;28;20196;-84
2023/02/07 07:43:55;;;;;;;70.00;10.43;;;-1.20;99.90;;;;;;5040566;28;20170;-85
2023/02/07 07:46:21;;;;;;;70.27;10.87;;;-1.30;99.90;;;;;;5040333;28;20475;-84
2023/02/07 07:48:46;;;;;;;72.07;11.63;;;-1.30;99.90;;;;;;5040065;28;20153;-84
2023/02/07 07:51:12;;;;;;;72.40;10.50;;;-1.30;99.90;;;;;;5022660;28;20497;-84
2023/02/07 07:53:38;;;;;;;73.90;11.50;;;-1.20;99.90;;;;;;5040377;28;20157;-84
2023/02/07 07:56:04;;;;;;;70.67;10.47;;;-1.20;99.90;;;;;;5040711;28;20200;-83
2023/02/07 07:58:30;;;;;;;73.18;11.43;;;-1.20;99.90;;;;;;5039815;28;20165;-83
2023/02/07 08:00:59;;;;;;;76.93;12.18;;;-1.20;99.90;;;;;;5040208;28;20264;-83
2023/02/07 08:03:25;;;;;;;72.70;10.15;;;-1.20;99.90;;;;;;5022691;28;20174;-85
2023/02/07 08:05:50;;;;;;;73.97;12.40;;;-1.10;99.90;;;;;;5039610;28;20181;-83
2023/02/07 08:08:18;;;;;;;70.77;11.43;;;-1.10;99.90;;;;;;5021684;28;20559;-83
2023/02/07 08:10:44;;;;;;;75.85;12.23;;;-1.00;99.90;;;;;;5021433;28;20209;-83
2023/02/07 08:13:10;;;;;;;72.57;11.23;;;-0.90;99.90;;;;;;5039570;28;20164;-84
2023/02/07 08:15:38;;;;;;;73.87;12.20;;;-0.90;99.90;;;;;;5039850;28;20161;-83
2023/02/07 08:18:04;;;;;;;71.05;11.05;;;-0.80;99.90;;;;;;5021502;28;20954;-83
2023/02/07 08:20:30;;;;;;;81.78;15.02;;;-0.70;99.90;;;;;;5021800;28;20173;-83
2023/02/07 08:22:56;;;;;;;76.60;11.30;;;-0.60;99.90;;;;;;5021330;28;20169;-83
2023/02/07 08:25:23;;;;;;;75.88;13.00;;;-0.60;99.90;;;;;;5020805;28;20451;-83
2023/02/07 08:27:49;;;;;;;74.05;10.98;;;-0.50;99.90;;;;;;5038644;28;20184;-84
2023/02/07 08:30:17;;;;;;;78.53;11.17;;;-0.50;99.90;;;;;;5039265;28;20541;-83
2023/02/07 08:32:43;;;;;;;70.88;10.57;;;-0.40;99.90;;;;;;5038233;28;20188;-83
2023/02/07 08:35:10;;;;;;;72.45;11.75;;;-0.40;99.90;;;;;;5038871;28;20161;-84
2023/02/07 08:37:35;;;;;;;77.55;9.95;;;-0.30;99.90;;;;;;5038633;28;20658;-83
2023/02/07 08:40:03;;;;;;;74.23;12.20;;;-0.40;99.90;;;;;;5021452;28;20232;-83
2023/02/07 08:42:29;;;;;;;80.63;13.63;;;-0.40;99.90;;;;;;5020340;28;20189;-83
2023/02/07 08:44:55;;;;;;;75.47;11.10;;;-0.30;99.90;;;;;;5037935;28;20195;-83
2023/02/07 08:47:30;;;;;;;72.38;10.23;;;-0.30;99.90;;;;;;5020209;28;20419;-83
2023/02/07 08:49:56;;;;;;;72.50;11.50;;;-0.30;99.90;;;;;;5020178;28;20153;-83
2023/02/07 08:52:22;;;;;;;71.90;11.97;;;-0.20;99.90;;;;;;5020102;28;20192;-83
2023/02/07 08:54:48;;;;;;;71.57;11.48;;;-0.20;99.90;;;;;;5038197;28;20407;-83
2023/02/07 08:57:15;;;;;;;73.20;12.00;;;-0.10;99.90;;;;;;5037621;28;20176;-83
2023/02/07 08:59:43;;;;;;;71.65;12.10;;;-0.10;99.90;;;;;;5020225;28;20416;-83
2023/02/07 09:02:11;;;;;;;70.95;12.18;;;0.00;99.90;;;;;;5037216;28;20195;-83
2023/02/07 09:04:37;;;;;;;77.35;12.45;;;0.00;99.90;;;;;;5020800;28;20185;-83
2023/02/07 09:07:02;;;;;;;70.57;12.57;;;0.10;99.90;;;;;;5020188;28;20165;-83
2023/02/07 09:09:28;;;;;;;73.60;14.93;;;0.10;99.90;;;;;;5038296;28;20240;-83
2023/02/07 09:11:54;;;;;;;71.47;15.30;;;0.20;99.90;;;;;;5037724;28;20315;-84
2023/02/07 09:14:19;;;;;;;70.40;12.60;;;0.30;99.90;;;;;;5038180;28;20408;-84
2023/02/07 09:16:45;;;;;;;71.87;13.20;;;0.30;99.90;;;;;;5038293;28;20161;-84
2023/02/07 09:19:11;;;;;;;70.77;12.63;;;0.40;99.90;;;;;;5037221;28;20165;-84
2023/02/07 09:21:39;;;;;;;70.70;13.40;;;0.40;99.90;;;;;;5020086;28;20432;-84
2023/02/07 09:24:07;;;;;;;71.90;11.20;;;0.40;99.90;;;;;;5038068;28;20217;-84
2023/02/07 09:26:35;;;;;;;71.78;12.40;;;0.50;99.90;;;;;;5020037;28;20197;-84
2023/02/07 09:29:01;;;;;;;72.35;10.82;;;0.60;99.90;;;;;;5019931;28;20162;-84
2023/02/07 09:31:27;;;;;;;71.25;10.98;;;0.60;99.90;;;;;;5020565;28;20239;-84
2023/02/07 09:33:52;;;;;;;69.87;11.40;;;0.70;99.90;;;;;;5038947;28;20616;-84
2023/02/07 09:36:24;;;;;;;70.50;11.80;;;0.80;99.90;;;;;;5038128;28;20407;-84
2023/02/07 09:38:51;;;;;;;71.05;12.45;;;0.80;99.90;;;;;;5037969;28;20431;-84
2023/02/07 09:41:32;;;;;;;71.55;12.63;;;0.90;99.90;;;;;;5038698;28;20189;-84
2023/02/07 09:44:22;;;;;;;71.57;11.48;;;0.90;99.90;;;;;;5038823;28;20658;-84
2023/02/07 09:47:10;;;;;;;69.65;10.27;;;1.00;99.90;;;;;;5020615;28;20173;-84
2023/02/07 09:49:44;;;;;;;73.03;12.23;;;1.10;99.90;;;;;;5020701;28;20172;-84
2023/02/07 09:52:21;;;;;;;71.35;11.13;;;1.20;99.90;;;;;;5021184;28;20193;-84
2023/02/07 09:54:51;;;;;;;71.88;13.25;;;1.30;99.90;;;;;;5020509;28;20160;-84
2023/02/07 09:57:36;;;;;;;71.70;12.23;;;1.30;99.90;;;;;;5021432;28;20272;-84
2023/02/07 10:00:26;;;;;;;70.97;11.02;;;1.40;99.90;;;;;;5021505;28;20157;-84
2023/02/07 10:03:35;;;;;;;70.63;10.43;;;1.50;99.90;;;;;;5020821;28;20178;-84
2023/02/07 10:06:05;;;;;;;72.68;14.82;;;1.50;99.90;;;;;;4923392;29;20208;-85
2023/02/07 10:08:33;;;;;;;76.03;19.65;;;1.60;99.90;;;;;;4924401;29;20153;-85
2023/02/07 10:11:08;;;;;;;75.55;20.17;;;1.70;99.90;;;;;;4990557;28;20201;-85
2023/02/07 10:13:54;;;;;;;76.10;18.60;;;1.80;99.90;;;;;;5041942;28;20203;-85
2023/02/07 10:16:22;;;;;;;74.70;19.95;;;1.90;99.90;;;;;;5020679;28;20189;-85
2023/02/07 10:18:53;;;;;;;78.78;18.77;;;2.00;99.90;;;;;;5020971;28;20180;-86
2023/02/07 10:21:18;;;;;;;76.32;15.02;;;2.00;99.90;;;;;;5021418;28;20223;-86
2023/02/07 10:24:16;;;;;;;72.10;13.67;;;2.10;99.90;;;;;;5021192;28;20180;-86
2023/02/07 10:26:53;;;;;;;73.32;12.10;;;2.10;99.90;;;;;;5020989;28;20213;-86
2023/02/07 10:29:49;;;;;;;73.22;11.45;;;2.30;99.90;;;;;;5021300;28;20180;-86
2023/02/07 10:32:21;;;;;;;73.38;12.23;;;2.30;99.90;;;;;;5024752;28;20185;-86
2023/02/07 10:34:51;;;;;;;73.03;10.45;;;2.30;99.90;;;;;;5043093;28;20177;-86
2023/02/07 10:37:21;;;;;;;74.68;11.18;;;2.40;99.90;;;;;;5024984;28;20175;-86
2023/02/07 10:40:13;;;;;;;72.38;9.88;;;2.50;99.90;;;;;;5042830;28;20169;-86
2023/02/07 10:42:41;;;;;;;73.75;10.63;;;2.60;99.90;;;;;;5042754;28;20182;-85
2023/02/07 10:45:11;;;;;;;70.50;8.32;;;2.60;99.90;;;;;;5042419;28;20185;-85
2023/02/07 10:47:39;;;;;;;71.63;10.40;;;2.80;99.90;;;;;;5024776;28;20153;-85
2023/02/07 10:50:14;;;;;;;70.60;9.90;;;2.90;99.90;;;;;;5024365;28;20169;-85
2023/02/07 10:52:44;;;;;;;69.85;9.65;;;2.90;99.90;;;;;;5042088;28;20185;-85
2023/02/07 10:55:12;;;;;;;71.75;9.45;;;3.00;99.90;;;;;;5024110;28;20168;-85
2023/02/07 10:57:38;;;;;;;73.65;9.77;;;3.00;99.90;;;;;;5041851;28;20176;-84
2023/02/07 11:00:26;;;;;;;71.17;9.70;;;3.00;99.90;;;;;;5041985;28;20169;-85
2023/02/07 11:02:54;;;;;;;70.40;8.50;;;3.20;99.90;;;;;;5042498;28;20436;-85
2023/02/07 11:05:22;;;;;;;73.88;9.65;;;3.30;99.90;;;;;;5023432;28;20255;-84
2023/02/07 11:07:58;;;;;;;74.22;10.15;;;3.30;99.50;;;;;;5023740;28;20165;-84
2023/02/07 11:10:39;;;;;;;72.38;10.35;;;3.40;94.30;;;;;;5041258;28;20359;-85
2023/02/07 11:13:12;;;;;;;71.85;10.32;;;3.40;53.90;;;;;;5041774;28;20149;-85
2023/02/07 11:15:56;;;;;;;73.07;10.43;;;3.50;28.40;;;;;;5041314;28;20173;-84
2023/02/07 11:18:42;;;;;;;74.75;10.88;;;3.50;13.70;;;;;;5023822;28;20248;-84
2023/02/07 11:21:29;;;;;;;72.53;8.73;;;3.50;15.50;;;;;;5041133;28;20185;-84
2023/02/07 11:24:00;;;;;;;70.70;8.88;;;3.80;6.70;;;;;;5040926;28;20576;-84
2023/02/07 11:26:26;;;;;;;76.68;10.15;;;3.80;5.60;;;;;;5022914;28;20283;-84
2023/02/07 11:29:05;;;;;;;72.70;9.50;;;3.80;5.70;;;;;;5023121;28;20233;-84
2023/02/07 11:31:35;;;;;;;70.07;8.75;;;3.60;1.00;;;;;;5040551;28;20424;-84
2023/02/07 11:34:26;;;;;;;79.68;32.13;;;3.70;1.00;;;;;;5041502;28;20157;-84
2023/02/07 11:36:52;;;;;;;72.05;9.70;;;3.70;1.00;;;;;;5023277;28;20203;-84
2023/02/07 11:39:20;;;;;;;71.20;8.63;;;3.50;1.00;;;;;;5023200;28;20216;-84
2023/02/07 11:42:00;;;;;;;71.82;8.32;;;3.60;1.00;;;;;;5040470;28;20247;-84
2023/02/07 11:44:28;;;;;;;72.05;9.77;;;3.60;1.00;;;;;;5041139;28;20587;-84
2023/02/07 11:46:58;;;;;;;74.28;10.20;;;3.80;1.00;;;;;;5042420;28;20161;-84
2023/02/07 11:49:41;;;;;;;71.22;9.35;;;3.90;1.00;;;;;;5023073;28;20154;-84
2023/02/07 11:52:07;;;;;;;73.13;9.13;;;3.90;1.00;;;;;;5022864;28;20208;-85
2023/02/07 11:54:35;;;;;;;70.95;8.27;;;4.00;1.00;;;;;;5039691;28;20168;-84
2023/02/07 11:57:11;;;;;;;72.18;9.23;;;4.20;1.00;;;;;;5040243;28;20161;-84
2023/02/07 11:59:46;;;;;;;73.95;9.50;;;4.20;1.00;;;;;;5023332;28;20157;-84
2023/02/07 12:02:21;;;;;;;72.90;9.95;;;4.10;1.00;;;;;;5040125;28;20291;-85
2023/02/07 12:04:47;;;;;;;73.85;10.35;;;4.10;1.00;;;;;;5040314;28;20181;-85
2023/02/07 12:07:24;;;;;;;71.60;9.40;;;4.10;1.00;;;;;;5040063;28;20173;-84
2023/02/07 12:09:59;;;;;;;75.60;11.90;;;4.20;1.00;;;;;;5022387;28;20161;-84
2023/02/07 12:13:04;;;;;;;76.00;11.02;;;4.10;1.00;;;;;;5022063;28;20188;-85
2023/02/07 12:15:51;;;;;;;73.00;10.43;;;4.20;1.00;;;;;;5021317;28;20188;-85
2023/02/07 12:18:34;;;;;;;72.35;10.38;;;4.40;1.00;;;;;;5022385;28;20165;-85
2023/02/07 12:21:21;;;;;;;71.63;9.40;;;4.40;1.00;;;;;;5021925;28;20694;-85
2023/02/07 12:24:14;;;;;;;71.95;9.65;;;4.50;1.00;;;;;;5040665;28;20587;-85
2023/02/07 12:26:50;;;;;;;71.10;9.52;;;4.60;1.00;;;;;;5022401;28;20189;-85
2023/02/07 12:29:50;;;;;;;73.07;10.40;;;4.60;1.00;;;;;;5040231;28;20177;-85
2023/02/07 12:32:34;;;;;;;71.70;9.43;;;4.60;1.00;;;;;;5040298;28;20235;-85
2023/02/07 12:35:10;;;;;;;71.72;9.25;;;4.60;1.00;;;;;;5022062;28;20172;-85
2023/02/07 12:37:44;;;;;;;74.50;9.30;;;4.70;1.00;;;;;;5039611;28;20183;-85
2023/02/07 12:40:36;;;;;;;73.90;9.10;;;4.70;1.00;;;;;;5039457;28;20232;-85
2023/02/07 12:43:13;;;;;;;70.40;8.68;;;4.70;1.00;;;;;;5039762;28;20150;-85
2023/02/07 12:46:01;;;;;;;71.22;8.27;;;4.70;1.00;;;;;;5040477;28;20181;-85
2023/02/07 12:49:24;;;;;;;71.85;8.57;;;4.70;1.00;;;;;;5022034;28;20176;-85
2023/02/07 12:52:24;;;;;;;71.70;8.55;;;4.70;1.00;;;;;;5002463;28;20189;-85
2023/02/07 12:55:09;;;;;;;79.65;9.20;;;4.60;1.00;;;;;;5021985;28;20196;-85
2023/02/07 12:58:03;;;;;;;73.20;9.20;;;4.50;1.00;;;;;;5040057;28;20225;-85